createdAt,value
2018-08-24T04:03:34.719Z,1.60
2018-08-24T04:06:03.214Z,1.83
2018-08-24T04:08:32.256Z,2.17
2018-08-24T04:11:00.179Z,1.97
2018-08-24T04:13:30.410Z,1.67
2018-08-24T04:15:58.955Z,1.67
2018-08-24T04:18:27.579Z,2.30
2018-08-24T04:20:56.136Z,2.00
2018-08-24T04:23:24.027Z,1.80
2018-08-24T04:25:51.988Z,2.53
2018-08-24T04:28:19.764Z,2.67
2018-08-24T04:30:47.628Z,2.90
2018-08-24T04:33:15.749Z,2.70
2018-08-24T04:35:43.664Z,3.27
2018-08-24T04:38:11.904Z,2.97
2018-08-24T04:40:40.866Z,2.80
2018-08-24T04:43:09.451Z,3.43
2018-08-24T04:45:37.455Z,3.73
2018-08-24T04:48:05.252Z,3.80
2018-08-24T04:50:33.279Z,3.93
2018-08-24T04:53:01.345Z,2.80
2018-08-24T04:55:29.878Z,4.03
2018-08-24T04:57:57.589Z,3.10
2018-08-24T05:00:26.179Z,4.17
2018-08-24T05:02:54.167Z,3.50
2018-08-24T05:05:23.033Z,3.20
2018-08-24T05:07:51.061Z,3.30
2018-08-24T05:10:19.384Z,4.27
2018-08-24T05:12:47.782Z,3.50
2018-08-24T05:15:15.881Z,2.70
2018-08-24T05:17:44.131Z,2.80
2018-08-24T05:20:11.964Z,2.70
2018-08-24T05:22:39.850Z,2.37
2018-08-24T05:25:07.633Z,2.90
2018-08-24T05:27:35.385Z,2.57
2018-08-24T05:30:03.423Z,2.97
2018-08-24T05:32:31.393Z,2.40
2018-08-24T05:35:00.251Z,1.97
2018-08-24T05:37:29.945Z,3.10
2018-08-24T05:39:57.745Z,1.83
2018-08-24T05:42:25.625Z,2.63
2018-08-24T05:44:54.053Z,2.10
2018-08-24T05:47:22.006Z,2.47
2018-08-24T05:49:51.040Z,1.87
2018-08-24T05:52:18.946Z,2.60
2018-08-24T05:54:46.850Z,2.27
2018-08-24T05:57:14.673Z,2.27
2018-08-24T05:59:42.515Z,1.70
2018-08-24T06:02:11.059Z,1.77
2018-08-24T06:04:38.933Z,2.17
2018-08-24T06:07:06.625Z,2.20
2018-08-24T06:09:34.584Z,2.40
2018-08-24T06:12:02.639Z,2.40
2018-08-24T06:14:30.520Z,2.20
2018-08-24T06:17:03.328Z,2.03
2018-08-24T06:19:31.071Z,2.23
2018-08-24T06:21:58.647Z,1.93
2018-08-24T06:24:26.464Z,2.30
2018-08-24T06:26:54.465Z,2.10
2018-08-24T06:29:23.125Z,1.80
2018-08-24T06:31:51.405Z,2.00
2018-08-24T06:34:19.239Z,2.43
2018-08-24T06:36:47.001Z,2.90
2018-08-24T06:39:14.897Z,2.37
2018-08-24T06:41:43.619Z,1.90
2018-08-24T06:44:11.475Z,2.10
2018-08-24T06:46:39.478Z,2.10
2018-08-24T06:49:07.474Z,2.20
2018-08-24T06:51:35.469Z,2.33
2018-08-24T06:54:03.526Z,2.40
2018-08-24T06:56:31.407Z,2.63
2018-08-24T06:58:59.389Z,3.03
2018-08-24T07:01:27.263Z,2.60
2018-08-24T07:03:55.350Z,2.80
2018-08-24T07:06:23.591Z,2.30
2018-08-24T07:08:51.473Z,3.97
2018-08-24T07:11:19.868Z,2.93
2018-08-24T07:13:49.626Z,2.50
2018-08-24T07:16:18.483Z,3.10
2018-08-24T07:18:46.227Z,3.03
2018-08-24T07:21:14.372Z,3.63
2018-08-24T07:23:42.266Z,2.73
2018-08-24T07:26:10.181Z,3.50
2018-08-24T07:28:38.047Z,3.80
2018-08-24T07:31:06.222Z,2.97
2018-08-24T07:33:34.595Z,3.30
2018-08-24T07:36:02.707Z,2.90
2018-08-24T07:38:31.208Z,3.10
2018-08-24T07:40:59.439Z,3.20
2018-08-24T07:43:28.167Z,3.10
2018-08-24T07:45:56.187Z,2.40
2018-08-24T07:48:24.035Z,6.10
2018-08-24T07:50:52.720Z,3.70
2018-08-24T07:53:21.327Z,3.70
2018-08-24T07:55:49.328Z,3.73
2018-08-24T07:58:17.118Z,3.77
2018-08-24T08:00:45.823Z,3.77
2018-08-24T08:03:14.429Z,4.27
2018-08-24T08:05:42.399Z,2.90
2018-08-24T08:08:10.990Z,9.17
2018-08-24T08:10:40.843Z,3.53
2018-08-24T08:13:10.027Z,3.73
2018-08-24T08:15:38.630Z,3.93
2018-08-24T08:18:06.784Z,4.00
2018-08-24T08:20:35.509Z,3.43
2018-08-24T08:23:05.013Z,4.00
2018-08-24T08:25:32.980Z,3.60
2018-08-24T08:28:02.162Z,3.60
2018-08-24T08:30:30.802Z,3.07
2018-08-24T08:32:58.612Z,3.17
2018-08-24T08:35:27.819Z,3.67
2018-08-24T08:37:56.006Z,3.60
2018-08-24T08:40:24.437Z,3.70
2018-08-24T08:42:52.405Z,3.73
2018-08-24T08:45:20.978Z,4.30
2018-08-24T08:47:48.892Z,3.50
2018-08-24T08:50:17.193Z,2.43
2018-08-24T08:52:45.120Z,3.53
2018-08-24T08:55:13.554Z,4.30
2018-08-24T08:57:41.612Z,3.77
2018-08-24T09:00:09.994Z,2.93
2018-08-24T09:02:38.126Z,2.90
2018-08-24T09:05:06.016Z,3.10
2018-08-24T09:07:33.966Z,3.00
2018-08-24T09:10:02.361Z,2.90
2018-08-24T09:12:30.267Z,3.17
2018-08-24T09:14:58.871Z,3.33
2018-08-24T09:17:32.598Z,2.90
2018-08-24T09:20:05.501Z,4.10
2018-08-24T09:22:38.651Z,3.10
2018-08-24T09:25:11.978Z,2.83
2018-08-24T09:28:42.546Z,2.70
2018-08-24T09:31:14.615Z,3.13
2018-08-24T09:33:42.540Z,3.63
2018-08-24T09:36:15.634Z,2.97
2018-08-24T09:38:44.335Z,3.43
2018-08-24T09:41:12.114Z,3.40
2018-08-24T09:43:45.532Z,3.70
2018-08-24T09:46:13.979Z,3.20
2018-08-24T09:48:47.038Z,3.80
2018-08-24T09:51:20.143Z,4.00
2018-08-24T09:53:53.562Z,4.10
2018-08-24T09:56:21.244Z,4.20
2018-08-24T09:58:49.406Z,4.50
2018-08-24T10:01:22.803Z,4.57
2018-08-24T10:03:55.678Z,5.13
2018-08-24T10:06:28.791Z,4.33
2018-08-24T10:08:57.263Z,4.43
2018-08-24T10:11:25.281Z,4.40
2018-08-24T10:13:53.725Z,5.43
2018-08-24T10:16:21.317Z,5.07
2018-08-24T10:18:50.690Z,4.03
2018-08-24T10:21:18.447Z,4.23
2018-08-24T10:23:46.801Z,4.50
2018-08-24T10:26:14.877Z,4.70
2018-08-24T10:28:44.154Z,3.70
2018-08-24T10:31:12.890Z,2.50
2018-08-24T10:33:41.136Z,1.60
2018-08-24T10:36:12.268Z,0.60
2018-08-24T10:38:41.598Z,0.57
2018-08-24T10:41:10.861Z,1.50
2018-08-24T10:43:38.890Z,1.10
2018-08-24T10:46:06.823Z,1.20
2018-08-24T10:48:35.091Z,1.10
2018-08-24T10:51:03.494Z,1.33
2018-08-24T10:53:31.659Z,0.93
2018-08-24T10:55:59.634Z,1.07
2018-08-24T10:58:31.015Z,1.10
2018-08-24T11:00:59.288Z,1.40
2018-08-24T11:03:26.832Z,0.93
2018-08-24T11:05:54.461Z,1.37
2018-08-24T11:08:22.011Z,1.43
2018-08-24T11:10:49.554Z,1.30
2018-08-24T11:13:17.873Z,1.37
2018-08-24T11:15:48.745Z,1.60
2018-08-24T11:18:17.636Z,1.40
2018-08-24T11:20:45.346Z,1.30
2018-08-24T11:23:16.590Z,1.30
2018-08-24T11:25:44.949Z,1.60
2018-08-24T11:28:12.714Z,1.50
2018-08-24T11:30:41.114Z,2.40
2018-08-24T11:33:10.044Z,2.00
2018-08-24T11:35:39.824Z,1.70
2018-08-24T11:38:08.114Z,1.80
2018-08-24T11:40:36.087Z,1.77
2018-08-24T11:43:06.258Z,1.97
2018-08-24T11:45:34.125Z,2.53
2018-08-24T11:48:02.512Z,1.80
2018-08-24T11:50:31.089Z,2.10
2018-08-24T11:52:59.672Z,2.43
2018-08-24T11:55:28.922Z,1.40
2018-08-24T11:57:56.704Z,1.60
2018-08-24T12:00:29.487Z,1.70
2018-08-24T12:02:58.543Z,1.97
2018-08-24T12:05:26.791Z,1.43
2018-08-24T12:07:54.765Z,1.70
2018-08-24T12:10:23.004Z,1.80
2018-08-24T12:12:51.787Z,2.10
2018-08-24T12:15:20.369Z,2.40
2018-08-24T12:17:48.401Z,2.20
2018-08-24T12:20:17.128Z,1.80
2018-08-24T12:22:45.083Z,5.37
2018-08-24T12:25:13.150Z,2.53
2018-08-24T12:27:41.578Z,1.80
2018-08-24T12:30:09.375Z,2.23
2018-08-24T12:32:37.406Z,2.03
2018-08-24T12:35:05.288Z,2.60
2018-08-24T12:37:39.327Z,2.20
2018-08-24T12:40:07.110Z,2.03
2018-08-24T12:42:35.134Z,2.30
2018-08-24T12:45:04.291Z,1.80
2018-08-24T12:47:32.334Z,1.80
2018-08-24T12:50:00.269Z,1.83
2018-08-24T12:52:29.047Z,1.83
2018-08-24T12:54:56.767Z,1.30
2018-08-24T12:57:27.625Z,1.33
2018-08-24T12:59:55.870Z,1.20
2018-08-24T13:02:23.763Z,1.90
2018-08-24T13:04:51.726Z,1.40
2018-08-24T13:07:19.776Z,1.70
2018-08-24T13:09:47.724Z,1.20
2018-08-24T13:12:15.764Z,0.90
2018-08-24T13:14:43.663Z,1.40
2018-08-24T13:17:11.572Z,2.13
2018-08-24T13:19:39.338Z,1.40
2018-08-24T13:22:08.584Z,1.80
2018-08-24T13:24:36.839Z,1.40
2018-08-24T13:27:04.993Z,0.93
2018-08-24T13:29:33.366Z,1.20
2018-08-24T13:32:01.998Z,1.00
2018-08-24T13:34:29.911Z,1.63
2018-08-24T13:36:57.478Z,1.47
2018-08-24T13:39:25.093Z,0.90
2018-08-24T13:41:52.915Z,1.30
2018-08-24T13:44:21.410Z,1.00
2018-08-24T13:46:49.135Z,1.50
2018-08-24T13:49:16.971Z,1.40
2018-08-24T13:51:44.905Z,1.50
2018-08-24T13:54:12.756Z,1.20
2018-08-24T13:56:40.697Z,1.53
2018-08-24T13:59:09.759Z,1.80
2018-08-24T14:01:37.788Z,1.43
2018-08-24T14:04:05.611Z,1.47
2018-08-24T14:06:33.485Z,1.70
2018-08-24T14:09:01.922Z,1.17
2018-08-24T14:11:30.511Z,1.37
2018-08-24T14:13:59.071Z,1.50
2018-08-24T14:16:26.951Z,1.47
2018-08-24T14:18:55.654Z,1.40
2018-08-24T14:21:24.195Z,1.60
2018-08-24T14:23:52.214Z,1.53
2018-08-24T14:26:20.043Z,1.80
2018-08-24T14:28:47.865Z,1.60
2018-08-24T14:31:15.737Z,1.67
2018-08-24T14:33:43.801Z,1.40
2018-08-24T14:36:12.901Z,1.60
2018-08-24T14:38:40.997Z,1.40
2018-08-24T14:41:08.861Z,1.10
2018-08-24T14:43:36.890Z,1.43
2018-08-24T14:46:05.768Z,2.43
2018-08-24T14:48:33.801Z,4.03
2018-08-24T14:51:02.419Z,1.40
2018-08-24T14:53:30.334Z,1.60
2018-08-24T14:56:00.528Z,1.67
2018-08-24T14:58:29.073Z,1.80
2018-08-24T15:00:56.723Z,1.50
2018-08-24T15:03:24.351Z,1.40
2018-08-24T15:05:52.597Z,1.53
2018-08-24T15:08:21.829Z,1.33
2018-08-24T15:10:52.077Z,1.10
2018-08-24T15:13:32.581Z,1.97
2018-08-24T15:16:00.219Z,1.47
2018-08-24T15:18:27.783Z,1.87
2018-08-24T15:20:56.382Z,1.40
2018-08-24T15:23:24.080Z,1.70
2018-08-24T15:25:51.654Z,1.43
2018-08-24T15:28:19.541Z,1.60
2018-08-24T15:30:47.155Z,1.97
2018-08-24T15:33:14.838Z,0.80
2018-08-24T15:35:42.805Z,1.23
2018-08-24T15:38:11.534Z,2.23
2018-08-24T15:40:39.530Z,1.20
2018-08-24T15:43:07.123Z,1.60
2018-08-24T15:45:34.904Z,1.40
2018-08-24T15:48:03.063Z,1.57
2018-08-24T15:50:30.662Z,1.17
2018-08-24T15:52:58.963Z,0.90
2018-08-24T15:55:28.519Z,1.57
2018-08-24T15:57:56.138Z,1.40
2018-08-24T16:00:26.230Z,1.73
2018-08-24T16:02:54.526Z,1.60
2018-08-24T16:05:22.636Z,1.17
2018-08-24T16:07:53.021Z,1.40
2018-08-24T16:10:22.992Z,1.17
2018-08-24T16:12:50.681Z,1.60
2018-08-24T16:15:18.369Z,1.00
2018-08-24T16:17:52.459Z,1.70
2018-08-24T16:20:20.497Z,1.73
2018-08-24T16:22:48.903Z,1.80
2018-08-24T16:25:16.905Z,1.60
2018-08-24T16:27:45.323Z,1.37
2018-08-24T16:30:13.082Z,0.50
2018-08-24T16:32:41.227Z,2.33
2018-08-24T16:35:09.068Z,0.83
2018-08-24T16:37:36.991Z,1.20
2018-08-24T16:40:04.730Z,1.47
2018-08-24T16:42:33.150Z,0.70
2018-08-24T16:45:01.020Z,1.93
2018-08-24T16:47:29.461Z,1.73
2018-08-24T16:49:57.419Z,1.97
2018-08-24T16:52:25.253Z,1.13
2018-08-24T16:54:53.733Z,1.40
2018-08-24T16:57:21.376Z,1.30
2018-08-24T16:59:50.059Z,1.60
2018-08-24T17:02:17.620Z,1.40
2018-08-24T17:04:45.893Z,1.63
2018-08-24T17:07:18.041Z,2.33
2018-08-24T17:09:46.703Z,1.77
2018-08-24T17:12:15.323Z,1.90
2018-08-24T17:14:42.858Z,2.47
2018-08-24T17:17:10.478Z,1.93
2018-08-24T17:19:38.020Z,1.20
2018-08-24T17:22:05.627Z,1.50
2018-08-24T17:24:33.335Z,1.43
2018-08-24T17:27:01.054Z,1.70
2018-08-24T17:29:28.673Z,1.10
2018-08-24T17:31:56.253Z,1.30
2018-08-24T17:34:23.906Z,1.20
2018-08-24T17:36:51.541Z,2.80
2018-08-24T17:39:20.264Z,1.13
2018-08-24T17:41:48.801Z,1.53
2018-08-24T17:44:16.651Z,1.53
2018-08-24T17:46:44.267Z,1.30
2018-08-24T17:49:12.088Z,1.50
2018-08-24T17:51:40.431Z,2.10
2018-08-24T17:54:08.610Z,1.27
2018-08-24T17:56:37.005Z,1.70
2018-08-24T17:59:05.079Z,1.60
2018-08-24T18:01:33.528Z,1.30
2018-08-24T18:04:01.807Z,1.63
2018-08-24T18:06:30.030Z,1.60
2018-08-24T18:08:58.793Z,1.70
2018-08-24T18:11:26.740Z,1.50
2018-08-24T18:13:55.398Z,1.50
2018-08-24T18:16:23.314Z,2.07
2018-08-24T18:18:51.973Z,0.70
2018-08-24T18:21:20.227Z,0.93
2018-08-24T18:23:48.006Z,0.80
2018-08-24T18:26:15.866Z,1.63
2018-08-24T18:28:43.743Z,1.40
2018-08-24T18:31:12.210Z,2.00
2018-08-24T18:33:40.043Z,1.53
2018-08-24T18:36:07.941Z,1.60
2018-08-24T18:38:35.563Z,1.90
2018-08-24T18:41:03.349Z,1.67
2018-08-24T18:43:31.250Z,1.30
2018-08-24T18:45:58.999Z,1.50
2018-08-24T18:48:27.934Z,1.73
2018-08-24T18:50:55.813Z,1.83
2018-08-24T18:53:23.755Z,1.33
2018-08-24T18:55:51.562Z,2.07
2018-08-24T18:58:20.148Z,1.37
2018-08-24T19:00:48.585Z,2.10
2018-08-24T19:03:20.173Z,1.83
2018-08-24T19:05:52.352Z,1.30
2018-08-24T19:08:23.904Z,1.43
2018-08-24T19:10:59.638Z,1.63
2018-08-24T19:13:32.803Z,1.43
2018-08-24T19:16:04.283Z,1.80
2018-08-24T19:18:37.555Z,1.40
2018-08-24T19:21:10.858Z,1.70
2018-08-24T19:23:40.602Z,1.70
2018-08-24T19:26:08.358Z,1.47
2018-08-24T19:28:41.444Z,1.70
2018-08-24T19:31:09.696Z,1.53
2018-08-24T19:33:38.091Z,1.87
2018-08-24T19:36:06.665Z,1.43
2018-08-24T19:38:34.594Z,1.80
2018-08-24T19:41:08.161Z,1.60
2018-08-24T19:43:37.075Z,1.90
2018-08-24T19:46:05.022Z,1.67
2018-08-24T19:48:38.286Z,1.90
2018-08-24T19:51:06.144Z,1.60
2018-08-24T19:53:34.955Z,1.93
2018-08-24T19:56:02.794Z,2.00
2018-08-24T19:58:35.880Z,2.10
2018-08-24T20:01:04.134Z,1.97
2018-08-24T20:03:31.854Z,2.17
2018-08-24T20:06:04.989Z,2.37
2018-08-24T20:08:38.637Z,1.97
2018-08-24T20:11:06.580Z,2.50
2018-08-24T20:13:34.391Z,2.20
2018-08-24T20:16:07.532Z,1.63
2018-08-24T20:18:36.080Z,1.80
2018-08-24T20:21:04.008Z,1.93
2018-08-24T20:23:32.225Z,1.63
2018-08-24T20:26:01.681Z,1.33
2018-08-24T20:28:29.259Z,1.60
2018-08-24T20:30:57.426Z,1.80
2018-08-24T20:33:25.330Z,2.50
2018-08-24T20:35:56.944Z,1.80
2018-08-24T20:38:27.823Z,2.20
2018-08-24T20:40:59.838Z,2.50
2018-08-24T20:43:28.211Z,1.80
2018-08-24T20:45:56.640Z,2.23
2018-08-24T20:48:24.610Z,2.20
2018-08-24T20:50:53.380Z,1.83
2018-08-24T20:53:21.188Z,2.27
2018-08-24T20:55:49.216Z,2.13
2018-08-24T20:58:17.802Z,1.87
2018-08-24T21:00:45.661Z,2.00
2018-08-24T21:03:14.165Z,1.90
2018-08-24T21:05:43.060Z,2.23
2018-08-24T21:08:11.051Z,2.33
2018-08-24T21:10:39.783Z,2.10
2018-08-24T21:13:07.642Z,2.27
2018-08-24T21:15:36.059Z,1.90
2018-08-24T21:18:04.053Z,1.77
2018-08-24T21:20:32.082Z,2.17
2018-08-24T21:22:59.982Z,1.90
2018-08-24T21:25:28.403Z,2.10
2018-08-24T21:27:56.835Z,2.13
2018-08-24T21:30:25.715Z,2.00
2018-08-24T21:32:53.991Z,2.00
2018-08-24T21:35:22.937Z,1.93
2018-08-24T21:37:50.791Z,1.90
2018-08-24T21:40:18.615Z,1.50
2018-08-24T21:42:47.017Z,1.83
2018-08-24T21:45:16.489Z,1.60
2018-08-24T21:47:44.543Z,2.50
2018-08-24T21:50:12.475Z,1.63
2018-08-24T21:52:40.245Z,1.53
2018-08-24T21:55:14.987Z,1.97
2018-08-24T21:57:43.411Z,1.83
2018-08-24T22:03:28.010Z,1.80
2018-08-24T22:05:56.676Z,1.70
2018-08-24T22:08:24.655Z,2.20
2018-08-24T22:10:52.553Z,2.20
2018-08-24T22:13:20.098Z,2.47
2018-08-24T22:15:47.874Z,1.70
2018-08-24T22:18:15.815Z,2.37
2018-08-24T22:20:44.265Z,2.43
2018-08-24T22:23:13.728Z,1.77
2018-08-24T22:25:44.399Z,2.57
2018-08-24T22:28:11.982Z,1.70
2018-08-24T22:30:39.813Z,1.77
